Time;durP1;ratioP1;P1;durP2;ratioP2;P2;SDS_P1;SDS_P2;PMS_P1;PMS_P2;Temp;Humidity;BMP_temperature;BMP_pressure;BME280_temperature;BME280_humidity;BME280_pressure;Samples;Min_cycle;Max_cycle;Signal;HPM_P1;HPM_P2
2021/10/11 00:01:56;;;;;;;0.60;0.60;;;5.80;99.90;;;;;;4342086;33;20568;-69
2021/10/11 00:04:22;;;;;;;0.73;0.73;;;5.80;99.90;;;;;;4352712;33;20126;-67
2021/10/11 00:06:57;;;;;;;2.55;1.12;;;5.70;99.90;;;;;;4379897;32;20328;-68
2021/10/11 00:09:33;;;;;;;0.90;0.88;;;5.60;99.90;;;;;;4414529;32;20078;-72
2021/10/11 00:11:59;;;;;;;1.12;1.10;;;5.60;99.90;;;;;;4414559;32;20519;-68
2021/10/11 00:14:25;;;;;;;4.30;2.05;;;5.60;99.90;;;;;;4416083;32;20073;-68
2021/10/11 00:16:54;;;;;;;1.62;1.17;;;5.70;99.90;;;;;;4414028;32;20499;-67
2021/10/11 00:19:20;;;;;;;3.30;2.20;;;5.70;99.90;;;;;;4404939;32;20480;-68
2021/10/11 00:21:46;;;;;;;1.40;0.90;;;5.70;99.90;;;;;;4400275;32;20063;-68
2021/10/11 00:24:12;;;;;;;2.97;1.85;;;5.70;99.90;;;;;;4399480;32;20081;-67
2021/10/11 00:26:38;;;;;;;4.90;2.12;;;5.80;99.90;;;;;;4404752;32;20124;-68
2021/10/11 00:29:03;;;;;;;5.05;2.12;;;5.70;99.90;;;;;;4414080;32;20090;-68
2021/10/11 00:31:29;;;;;;;0.68;0.68;;;5.70;99.90;;;;;;4414271;32;20065;-67
2021/10/11 00:33:56;;;;;;;14.73;1.80;;;5.70;99.90;;;;;;4414497;32;20116;-68
2021/10/11 00:36:22;;;;;;;0.40;0.40;;;5.70;99.90;;;;;;4411348;32;20070;-68
2021/10/11 00:38:48;;;;;;;8.68;1.48;;;5.60;99.90;;;;;;4399017;32;20102;-70
2021/10/11 00:41:14;;;;;;;0.68;0.68;;;5.60;99.90;;;;;;4398982;32;20161;-68
2021/10/11 00:43:41;;;;;;;4.87;1.40;;;5.70;99.90;;;;;;4398724;32;20464;-67
2021/10/11 00:46:07;;;;;;;3.67;1.20;;;5.70;99.90;;;;;;4398645;32;20077;-69
2021/10/11 00:48:34;;;;;;;4.35;1.10;;;5.60;99.90;;;;;;4400012;32;20468;-68
2021/10/11 00:51:00;;;;;;;4.68;1.08;;;5.70;99.90;;;;;;4404436;32;20112;-69
2021/10/11 00:53:26;;;;;;;0.80;0.80;;;5.60;99.90;;;;;;4414110;32;20571;-67
2021/10/11 00:55:53;;;;;;;3.00;1.05;;;5.60;99.90;;;;;;4414277;32;20401;-71
2021/10/11 00:58:19;;;;;;;1.12;1.08;;;5.50;99.90;;;;;;4413657;32;20510;-67
2021/10/11 01:00:45;;;;;;;0.80;0.60;;;5.40;99.90;;;;;;4412933;32;20082;-68
2021/10/11 01:03:10;;;;;;;1.15;1.05;;;5.40;99.90;;;;;;4415061;32;20073;-68
2021/10/11 01:05:36;;;;;;;0.88;0.85;;;5.30;99.90;;;;;;4414891;32;20109;-68
2021/10/11 01:08:02;;;;;;;4.82;1.20;;;5.10;99.90;;;;;;4413850;32;20078;-67
2021/10/11 01:10:27;;;;;;;1.25;1.08;;;5.10;99.90;;;;;;4415529;32;20085;-70
2021/10/11 01:12:53;;;;;;;0.62;0.62;;;5.00;99.90;;;;;;4416676;32;20073;-67
2021/10/11 01:15:19;;;;;;;1.37;1.15;;;5.00;99.90;;;;;;4416848;32;20074;-67
2021/10/11 01:17:45;;;;;;;1.40;1.27;;;5.10;99.90;;;;;;4416266;32;20101;-67
2021/10/11 01:20:10;;;;;;;1.00;0.93;;;5.10;99.90;;;;;;4401646;32;20429;-68
2021/10/11 01:22:40;;;;;;;3.12;1.12;;;5.10;99.90;;;;;;4401610;32;20066;-68
2021/10/11 01:25:08;;;;;;;1.33;1.23;;;5.10;99.90;;;;;;4401050;32;20429;-69
2021/10/11 01:27:34;;;;;;;1.42;0.80;;;5.20;99.90;;;;;;4400172;32;20560;-67
2021/10/11 01:30:00;;;;;;;1.08;0.90;;;5.20;99.90;;;;;;4401210;32;20078;-66
2021/10/11 01:32:26;;;;;;;1.87;1.17;;;5.20;99.90;;;;;;4401239;32;20116;-67
2021/10/11 01:34:51;;;;;;;1.60;1.42;;;5.20;99.90;;;;;;4400497;32;20073;-67
2021/10/11 01:37:17;;;;;;;3.12;2.17;;;5.20;99.90;;;;;;4409401;32;20526;-68
2021/10/11 01:39:43;;;;;;;1.12;0.82;;;5.10;99.90;;;;;;4415452;32;20074;-66
2021/10/11 01:42:09;;;;;;;0.93;0.80;;;5.10;99.90;;;;;;4416382;32;20569;-68
2021/10/11 01:44:35;;;;;;;2.05;1.05;;;5.00;99.90;;;;;;4415820;32;20112;-71
2021/10/11 01:47:02;;;;;;;0.82;0.82;;;4.90;99.90;;;;;;4417028;32;20577;-68
2021/10/11 01:49:27;;;;;;;1.12;0.88;;;4.90;99.90;;;;;;4415950;32;20569;-65
2021/10/11 01:51:53;;;;;;;8.40;0.75;;;4.90;99.90;;;;;;4415736;32;20081;-69
2021/10/11 01:54:19;;;;;;;0.70;0.70;;;5.00;99.90;;;;;;4416005;32;20073;-67
2021/10/11 01:56:44;;;;;;;1.17;1.08;;;5.00;99.90;;;;;;4416413;32;20530;-67
2021/10/11 01:59:10;;;;;;;0.50;0.50;;;5.00;99.90;;;;;;4416695;32;20078;-67
2021/10/11 02:01:35;;;;;;;0.90;0.90;;;5.10;99.90;;;;;;4416329;32;20073;-69
2021/10/11 02:04:01;;;;;;;0.80;0.80;;;5.10;99.90;;;;;;4416151;32;20077;-68
2021/10/11 02:09:43;;;;;;;1.45;1.30;;;5.00;99.90;;;;;;4404979;32;20058;-68
2021/10/11 02:12:29;;;;;;;1.45;1.27;;;5.10;99.90;;;;;;4416234;32;20066;-67
2021/10/11 02:15:26;;;;;;;0.88;0.85;;;5.10;99.90;;;;;;4409846;32;20448;-66
2021/10/11 02:18:13;;;;;;;0.40;0.40;;;5.10;99.90;;;;;;4401023;32;20081;-67
2021/10/11 02:20:39;;;;;;;3.25;1.70;;;5.10;99.90;;;;;;4400359;32;20062;-68
2021/10/11 02:23:05;;;;;;;1.67;1.25;;;5.10;99.90;;;;;;4400740;32;20564;-68
2021/10/11 02:25:41;;;;;;;;;;;;;;;;;;;;;
2021/10/11 02:28:35;;;;;;;0.68;0.68;;;5.20;99.90;;;;;;4414526;32;20154;-67
2021/10/11 02:31:37;;;;;;;3.05;1.48;;;5.40;99.90;;;;;;4412175;32;20445;-67
2021/10/11 02:34:23;;;;;;;2.08;1.20;;;5.40;99.90;;;;;;4415452;32;20077;-67
2021/10/11 02:36:55;;;;;;;0.70;0.70;;;5.50;99.90;;;;;;4409851;32;20133;-69
2021/10/11 02:39:51;;;;;;;;;;;;;;;;;;;;;
2021/10/11 02:42:27;;;;;;;4.03;1.35;;;5.50;99.90;;;;;;4387907;32;20091;-68
2021/10/11 02:54:17;;;;;;;0.57;0.57;;;5.40;99.90;;;;;;4338576;33;20075;-70
2021/10/11 02:56:49;;;;;;;1.08;0.95;;;5.30;99.90;;;;;;4397727;32;20469;-67
2021/10/11 02:59:28;;;;;;;0.50;0.50;;;5.20;99.90;;;;;;4407973;32;20081;-67
2021/10/11 03:06:30;;;;;;;0.80;0.80;;;5.40;99.90;;;;;;4415300;32;20093;-69
2021/10/11 03:09:41;;;;;;;1.52;1.42;;;5.40;99.90;;;;;;4413004;32;20146;-69
2021/10/11 03:12:17;;;;;;;;;;;;;;;;;;;;;
2021/10/11 03:15:35;;;;;;;0.30;0.30;;;5.50;99.90;;;;;;4392709;32;20159;-68
2021/10/11 03:18:51;;;;;;;1.90;1.00;;;5.60;99.90;;;;;;4415068;32;20495;-67
2021/10/11 03:21:37;;;;;;;0.60;0.60;;;5.40;99.90;;;;;;4415488;32;20076;-70
2021/10/11 03:24:43;;;;;;;3.20;1.42;;;5.50;99.90;;;;;;4415692;32;20069;-72
2021/10/11 03:27:32;;;;;;;1.23;1.10;;;5.50;99.90;;;;;;4402717;32;20078;-68
2021/10/11 03:29:58;;;;;;;1.37;0.82;;;5.50;99.90;;;;;;4400278;32;20445;-66
2021/10/11 03:32:44;;;;;;;2.37;0.80;;;5.60;99.90;;;;;;4409864;32;20069;-68
2021/10/11 03:35:10;;;;;;;1.83;1.05;;;5.60;99.90;;;;;;4414657;32;20470;-67
2021/10/11 03:37:48;;;;;;;1.67;1.58;;;5.70;99.90;;;;;;4414649;32;20082;-67
2021/10/11 03:40:14;;;;;;;3.62;0.47;;;5.70;99.90;;;;;;4415337;32;20101;-67
2021/10/11 03:42:46;;;;;;;1.52;1.40;;;5.60;99.90;;;;;;4415835;32;20073;-67
2021/10/11 03:45:11;;;;;;;3.37;1.55;;;5.50;99.90;;;;;;4414911;32;20081;-66
2021/10/11 03:47:47;;;;;;;0.47;0.47;;;5.60;99.90;;;;;;4414599;32;20516;-68
2021/10/11 03:50:13;;;;;;;1.77;1.45;;;5.70;99.90;;;;;;4414646;32;20487;-66
2021/10/11 03:52:39;;;;;;;2.20;1.20;;;5.70;99.90;;;;;;4414333;32;20065;-67
2021/10/11 03:55:05;;;;;;;2.75;1.85;;;5.70;99.90;;;;;;4402302;32;20076;-67
2021/10/11 03:57:31;;;;;;;0.62;0.62;;;5.60;99.90;;;;;;4399545;32;20496;-68
2021/10/11 03:59:56;;;;;;;1.52;0.95;;;5.60;99.90;;;;;;4399378;32;20081;-69
2021/10/11 04:02:22;;;;;;;0.70;0.70;;;5.60;99.90;;;;;;4399468;32;20433;-67
2021/10/11 04:04:48;;;;;;;1.12;1.02;;;5.50;99.90;;;;;;4399737;32;20093;-68
2021/10/11 04:07:16;;;;;;;0.60;0.60;;;5.60;99.90;;;;;;4399521;32;20070;-69
2021/10/11 04:09:44;;;;;;;0.90;0.85;;;5.60;99.90;;;;;;4400390;32;20078;-67
2021/10/11 04:12:17;;;;;;;1.90;1.55;;;5.60;99.90;;;;;;4399757;32;20405;-69
2021/10/11 04:14:44;;;;;;;1.17;0.68;;;5.60;99.90;;;;;;4399556;32;20081;-67
2021/10/11 04:17:10;;;;;;;0.80;0.80;;;5.60;99.90;;;;;;4399547;32;20143;-67
2021/10/11 04:19:36;;;;;;;5.20;1.87;;;5.50;99.90;;;;;;4399074;32;20125;-68
2021/10/11 04:22:02;;;;;;;1.37;1.02;;;5.50;99.90;;;;;;4399815;32;20539;-67
2021/10/11 04:24:30;;;;;;;1.77;0.80;;;5.50;99.90;;;;;;4399997;32;20078;-66
2021/10/11 04:26:56;;;;;;;4.10;1.73;;;5.60;99.90;;;;;;4405876;32;20101;-67
2021/10/11 04:29:22;;;;;;;1.23;1.08;;;5.60;99.90;;;;;;4414441;32;20082;-69
2021/10/11 04:31:47;;;;;;;1.00;1.00;;;5.60;99.90;;;;;;4414540;32;20061;-70
2021/10/11 04:34:13;;;;;;;2.95;1.83;;;5.60;99.90;;;;;;4414321;32;20073;-69
2021/10/11 04:36:39;;;;;;;0.68;0.68;;;5.50;99.90;;;;;;4410402;32;20117;-67
2021/10/11 04:39:05;;;;;;;3.30;2.35;;;5.50;99.90;;;;;;4399214;32;20078;-68
2021/10/11 04:41:31;;;;;;;0.60;0.60;;;5.50;99.90;;;;;;4398927;32;20087;-69
2021/10/11 04:43:56;;;;;;;1.30;1.20;;;5.50;99.90;;;;;;4400457;32;20499;-68
2021/10/11 04:46:22;;;;;;;1.10;1.05;;;5.60;99.90;;;;;;4402001;32;20062;-69
2021/10/11 04:48:48;;;;;;;0.68;0.68;;;5.60;99.90;;;;;;4401630;32;20126;-68
2021/10/11 04:51:13;;;;;;;0.98;0.82;;;5.50;99.90;;;;;;4409090;32;20065;-67
2021/10/11 04:53:39;;;;;;;1.10;1.08;;;5.40;99.90;;;;;;4416513;32;20539;-67
2021/10/11 04:56:04;;;;;;;3.15;1.52;;;5.40;99.90;;;;;;4416729;32;20070;-68
2021/10/11 04:58:30;;;;;;;9.07;3.17;;;5.40;99.90;;;;;;4416152;32;20432;-67
2021/10/11 05:00:55;;;;;;;1.55;1.42;;;5.40;99.90;;;;;;4415299;32;20093;-67
2021/10/11 05:03:21;;;;;;;1.90;1.48;;;5.40;99.90;;;;;;4408814;32;20528;-68
2021/10/11 05:05:47;;;;;;;0.80;0.80;;;5.60;99.90;;;;;;4401893;32;20073;-69
2021/10/11 05:08:12;;;;;;;1.12;1.02;;;5.60;99.90;;;;;;4401232;32;20074;-68
2021/10/11 05:10:38;;;;;;;1.42;1.15;;;5.60;99.90;;;;;;4414529;32;20074;-67
2021/10/11 05:13:03;;;;;;;4.78;1.55;;;5.50;99.90;;;;;;4409415;32;20065;-68
2021/10/11 05:15:29;;;;;;;1.17;1.05;;;5.50;99.90;;;;;;4414214;32;20074;-66
2021/10/11 05:17:55;;;;;;;2.90;1.25;;;5.70;99.90;;;;;;4414748;32;20550;-66
2021/10/11 05:20:21;;;;;;;1.27;0.88;;;5.80;99.90;;;;;;4401300;32;20066;-68
2021/10/11 05:22:47;;;;;;;7.57;2.15;;;5.90;99.90;;;;;;4415016;32;20066;-68
2021/10/11 05:25:13;;;;;;;0.82;0.82;;;5.80;99.90;;;;;;4416507;32;20117;-68
2021/10/11 05:27:41;;;;;;;1.05;1.00;;;5.60;99.90;;;;;;4404359;32;20078;-67
2021/10/11 05:30:13;;;;;;;1.92;1.40;;;5.70;99.90;;;;;;4410049;32;20124;-69
2021/10/11 05:32:39;;;;;;;1.35;1.15;;;5.70;99.90;;;;;;4416890;32;20069;-67
